createdAt,value
2022-11-15T00:00:02.838Z,958.67
2022-11-15T00:01:02.845Z,958.61
2022-11-15T00:02:02.904Z,958.65
2022-11-15T00:03:05.811Z,958.61
2022-11-15T00:04:02.814Z,958.59
2022-11-15T00:05:02.782Z,958.58
2022-11-15T00:06:02.773Z,958.59
2022-11-15T00:07:02.796Z,958.52
2022-11-15T00:08:02.826Z,958.54
2022-11-15T00:09:02.750Z,958.54
2022-11-15T00:10:02.766Z,958.50
2022-11-15T00:11:02.733Z,958.52
2022-11-15T00:12:02.722Z,958.51
2022-11-15T00:13:02.704Z,958.50
2022-11-15T00:14:02.689Z,958.51
2022-11-15T00:15:02.683Z,958.48
2022-11-15T00:16:02.667Z,958.46
2022-11-15T00:17:02.664Z,958.48
2022-11-15T00:18:05.655Z,958.49
2022-11-15T00:19:02.665Z,958.52
2022-11-15T00:20:02.632Z,958.51
2022-11-15T00:21:02.643Z,958.51
2022-11-15T00:22:02.616Z,958.50
2022-11-15T00:23:02.598Z,958.51
2022-11-15T00:24:02.593Z,958.50
2022-11-15T00:25:02.587Z,958.51
2022-11-15T00:26:02.577Z,958.48
2022-11-15T00:27:05.456Z,958.42
2022-11-15T00:28:02.558Z,958.42
2022-11-15T00:29:02.535Z,958.42
2022-11-15T00:30:02.570Z,958.40
2022-11-15T00:31:02.532Z,958.39
2022-11-15T00:32:02.526Z,958.38
2022-11-15T00:33:05.497Z,958.39
2022-11-15T00:34:02.525Z,958.40
2022-11-15T00:35:02.483Z,958.35
2022-11-15T00:36:02.487Z,958.36
2022-11-15T00:37:02.462Z,958.33
2022-11-15T00:38:02.500Z,958.34
2022-11-15T00:39:02.457Z,958.31
2022-11-15T00:40:02.442Z,958.32
2022-11-15T00:41:07.746Z,958.30
2022-11-15T00:42:02.413Z,958.28
2022-11-15T00:43:02.404Z,958.29
2022-11-15T00:44:02.420Z,958.26
2022-11-15T00:45:02.379Z,958.27
2022-11-15T00:46:02.372Z,958.26
2022-11-15T00:47:02.359Z,958.21
2022-11-15T00:48:05.352Z,958.25
2022-11-15T00:49:02.374Z,958.22
2022-11-15T00:50:02.338Z,958.23
2022-11-15T00:51:02.328Z,958.21
2022-11-15T00:52:02.315Z,958.20
2022-11-15T00:53:02.301Z,958.19
2022-11-15T00:54:02.313Z,958.19
2022-11-15T00:55:02.411Z,958.17
2022-11-15T00:56:02.266Z,958.18
2022-11-15T00:57:02.261Z,958.20
2022-11-15T00:58:02.263Z,958.19
2022-11-15T00:59:02.241Z,958.19
2022-11-15T01:00:02.410Z,958.17
2022-11-15T01:01:02.331Z,958.17
2022-11-15T01:02:02.213Z,958.18
2022-11-15T01:03:05.285Z,958.18
2022-11-15T01:04:02.202Z,958.20
2022-11-15T01:05:02.178Z,958.14
2022-11-15T01:06:02.295Z,958.23
2022-11-15T01:07:02.222Z,958.26
2022-11-15T01:08:02.154Z,958.25
2022-11-15T01:09:02.137Z,958.26
2022-11-15T01:10:02.130Z,958.26
2022-11-15T01:11:02.160Z,958.25
2022-11-15T01:12:02.112Z,958.30
2022-11-15T01:13:02.102Z,958.31
2022-11-15T01:14:02.075Z,958.30
2022-11-15T01:15:02.117Z,958.27
2022-11-15T01:16:02.064Z,958.32
2022-11-15T01:17:02.075Z,958.29
2022-11-15T01:18:05.045Z,958.27
2022-11-15T01:19:02.044Z,958.29
2022-11-15T01:20:02.026Z,958.26
2022-11-15T01:21:02.015Z,958.32
2022-11-15T01:22:02.119Z,958.30
2022-11-15T01:23:02.006Z,958.25
2022-11-15T01:24:01.994Z,958.24
2022-11-15T01:25:01.977Z,958.26
2022-11-15T01:26:01.987Z,958.25
2022-11-15T01:27:01.954Z,958.20
2022-11-15T01:28:01.956Z,958.19
2022-11-15T01:29:01.937Z,958.17
2022-11-15T01:30:01.922Z,958.19
2022-11-15T01:31:01.925Z,958.13
2022-11-15T01:32:01.927Z,958.05
2022-11-15T01:33:04.926Z,957.99
2022-11-15T01:34:01.896Z,958.00
2022-11-15T01:35:01.881Z,957.94
2022-11-15T01:36:01.865Z,957.92
2022-11-15T01:37:01.869Z,957.90
2022-11-15T01:38:01.858Z,957.88
2022-11-15T01:39:01.847Z,957.88
2022-11-15T01:40:01.817Z,957.87
2022-11-15T01:41:01.869Z,957.89
2022-11-15T01:42:01.806Z,957.88
2022-11-15T01:43:01.798Z,957.89
2022-11-15T01:44:01.800Z,957.89
2022-11-15T01:45:01.839Z,957.87
2022-11-15T01:46:01.802Z,957.85
2022-11-15T01:47:01.749Z,957.91
2022-11-15T01:48:04.758Z,957.86
2022-11-15T01:49:01.749Z,957.85
2022-11-15T01:50:01.769Z,957.81
2022-11-15T01:51:01.720Z,957.84
2022-11-15T01:52:01.698Z,957.83
2022-11-15T01:53:01.690Z,957.82
2022-11-15T01:54:01.670Z,957.80
2022-11-15T01:55:01.671Z,957.70
2022-11-15T01:56:01.668Z,957.74
2022-11-15T01:57:01.650Z,957.69
2022-11-15T01:58:01.693Z,957.67
2022-11-15T01:59:01.633Z,957.63
2022-11-15T02:00:03.098Z,957.60
2022-11-15T02:01:01.632Z,957.61
2022-11-15T02:02:01.620Z,957.64
2022-11-15T02:03:04.593Z,957.68
2022-11-15T02:04:01.601Z,957.65
2022-11-15T02:05:01.572Z,957.63
2022-11-15T02:06:01.552Z,957.64
2022-11-15T02:07:01.770Z,957.62
2022-11-15T02:08:01.547Z,957.61
2022-11-15T02:09:01.536Z,957.54
2022-11-15T02:10:01.513Z,957.54
2022-11-15T02:11:01.511Z,957.49
2022-11-15T02:12:01.633Z,957.48
2022-11-15T02:13:01.524Z,957.45
2022-11-15T02:14:01.477Z,957.44
2022-11-15T02:15:01.474Z,957.43
2022-11-15T02:16:03.251Z,957.43
2022-11-15T02:17:01.444Z,957.42
2022-11-15T02:18:05.964Z,957.45
2022-11-15T02:19:01.452Z,957.44
2022-11-15T02:20:01.423Z,957.44
2022-11-15T02:21:01.419Z,957.45
2022-11-15T02:22:01.403Z,957.40
2022-11-15T02:23:01.386Z,957.41
2022-11-15T02:24:01.465Z,957.40
2022-11-15T02:25:01.364Z,957.40
2022-11-15T02:26:01.358Z,957.42
2022-11-15T02:27:01.346Z,957.44
2022-11-15T02:28:01.338Z,957.43
2022-11-15T02:29:01.342Z,957.45
2022-11-15T02:30:01.315Z,957.50
2022-11-15T02:31:01.344Z,957.42
2022-11-15T02:32:01.298Z,957.44
2022-11-15T02:33:04.289Z,957.36
2022-11-15T02:34:01.296Z,957.33
2022-11-15T02:35:01.266Z,957.31
2022-11-15T02:36:01.261Z,957.31
2022-11-15T02:37:01.255Z,957.31
2022-11-15T02:38:01.235Z,957.26
2022-11-15T02:39:01.227Z,957.30
2022-11-15T02:40:01.238Z,957.28
2022-11-15T02:41:01.206Z,957.23
2022-11-15T02:42:01.200Z,957.27
2022-11-15T02:43:05.639Z,957.24
2022-11-15T02:44:01.350Z,957.22
2022-11-15T02:45:01.170Z,957.21
2022-11-15T02:46:01.154Z,957.24
2022-11-15T02:47:01.151Z,957.27
2022-11-15T02:48:04.139Z,957.23
2022-11-15T02:49:01.149Z,957.22
2022-11-15T02:50:01.107Z,957.29
2022-11-15T02:51:01.109Z,957.26
2022-11-15T02:52:01.095Z,957.23
2022-11-15T02:53:01.182Z,957.24
2022-11-15T02:54:01.082Z,957.25
2022-11-15T02:55:01.059Z,957.27
2022-11-15T02:56:01.049Z,957.27
2022-11-15T02:57:01.043Z,957.26
2022-11-15T02:58:01.080Z,957.23
2022-11-15T02:59:01.018Z,957.24
2022-11-15T03:00:01.011Z,957.23
2022-11-15T03:01:01.043Z,957.24
2022-11-15T03:02:00.989Z,957.22
2022-11-15T03:03:04.008Z,957.22
2022-11-15T03:04:00.993Z,957.20
2022-11-15T03:05:00.978Z,957.20
2022-11-15T03:06:00.959Z,957.26
2022-11-15T03:07:00.967Z,957.25
2022-11-15T03:08:02.489Z,957.23
2022-11-15T03:09:00.921Z,957.17
2022-11-15T03:10:01.022Z,957.15
2022-11-15T03:11:00.938Z,957.13
2022-11-15T03:12:00.893Z,957.11
2022-11-15T03:13:00.882Z,957.05
2022-11-15T03:14:00.869Z,957.05
2022-11-15T03:15:00.861Z,957.06
2022-11-15T03:16:00.852Z,957.01
2022-11-15T03:17:00.865Z,957.01
2022-11-15T03:18:03.823Z,956.94
2022-11-15T03:19:00.834Z,956.98
2022-11-15T03:20:00.801Z,956.93
2022-11-15T03:21:00.803Z,956.99
2022-11-15T03:22:00.794Z,956.95
2022-11-15T03:23:00.821Z,956.98
2022-11-15T03:24:00.773Z,956.95
2022-11-15T03:25:00.761Z,956.92
2022-11-15T03:26:00.751Z,956.88
2022-11-15T03:27:00.754Z,956.92
2022-11-15T03:28:00.725Z,956.95
2022-11-15T03:29:00.844Z,956.95
2022-11-15T03:30:00.704Z,956.93
2022-11-15T03:31:00.694Z,956.95
2022-11-15T03:32:00.685Z,956.96
2022-11-15T03:33:03.672Z,956.92
2022-11-15T03:34:00.695Z,956.91
2022-11-15T03:35:00.676Z,956.90
2022-11-15T03:36:00.675Z,956.87
2022-11-15T03:37:00.635Z,956.89
2022-11-15T03:38:00.664Z,956.82
2022-11-15T03:39:00.644Z,956.85
2022-11-15T03:40:00.604Z,956.87
2022-11-15T03:41:00.647Z,956.79
2022-11-15T03:42:00.613Z,956.81
2022-11-15T03:43:00.600Z,956.83
2022-11-15T03:44:00.567Z,956.79
2022-11-15T03:45:00.564Z,956.77
2022-11-15T03:46:00.588Z,956.75
2022-11-15T03:47:00.528Z,956.78
2022-11-15T03:48:03.520Z,956.76
2022-11-15T03:49:00.530Z,956.74
2022-11-15T03:50:00.495Z,956.73
2022-11-15T03:51:00.492Z,956.74
2022-11-15T03:52:00.484Z,956.71
2022-11-15T03:53:00.477Z,956.74
2022-11-15T03:54:00.462Z,956.76
2022-11-15T03:55:00.466Z,956.72
2022-11-15T03:56:00.438Z,956.75
2022-11-15T03:57:00.458Z,956.74
2022-11-15T03:58:00.426Z,956.77
2022-11-15T03:59:00.410Z,956.78
2022-11-15T04:00:00.401Z,956.75
2022-11-15T04:01:00.505Z,956.75
2022-11-15T04:02:00.379Z,956.81
2022-11-15T04:03:03.370Z,956.76
2022-11-15T04:04:00.409Z,956.79
2022-11-15T04:05:00.353Z,956.86
2022-11-15T04:06:00.351Z,956.83
2022-11-15T04:07:00.368Z,956.84
2022-11-15T04:08:00.323Z,956.90
2022-11-15T04:09:00.313Z,956.85
2022-11-15T04:10:00.320Z,956.84
2022-11-15T04:11:02.371Z,956.90
2022-11-15T04:12:00.281Z,956.86
2022-11-15T04:13:00.264Z,956.84
2022-11-15T04:14:00.252Z,956.84
2022-11-15T04:15:00.365Z,956.85
2022-11-15T04:16:00.231Z,956.89
2022-11-15T04:17:00.236Z,956.89
2022-11-15T04:18:03.220Z,956.86
2022-11-15T04:19:00.214Z,956.87
2022-11-15T04:20:00.214Z,956.82
2022-11-15T04:21:00.217Z,956.86
2022-11-15T04:22:00.183Z,956.83
2022-11-15T04:23:00.173Z,956.83
2022-11-15T04:24:00.155Z,956.81
2022-11-15T04:25:00.145Z,956.85
2022-11-15T04:26:00.133Z,956.80
2022-11-15T04:27:00.143Z,956.81
2022-11-15T04:28:00.118Z,956.76
2022-11-15T04:29:00.105Z,956.75
2022-11-15T04:30:00.106Z,956.75
2022-11-15T04:31:00.085Z,956.72
2022-11-15T04:32:00.095Z,956.81
2022-11-15T04:33:03.067Z,956.81
2022-11-15T04:34:00.082Z,956.84
2022-11-15T04:35:00.056Z,956.84
2022-11-15T04:36:00.034Z,956.87
2022-11-15T04:37:00.026Z,956.80
2022-11-15T04:38:00.018Z,956.86
2022-11-15T04:39:00.006Z,956.78
2022-11-15T04:39:59.985Z,956.80
2022-11-15T04:41:00.000Z,956.78
2022-11-15T04:41:59.987Z,956.79
2022-11-15T04:43:03.981Z,956.74
2022-11-15T04:43:59.948Z,956.73
2022-11-15T04:44:59.947Z,956.69
2022-11-15T04:45:59.978Z,956.70
2022-11-15T04:46:59.918Z,956.62
2022-11-15T04:48:02.925Z,956.63
2022-11-15T04:48:59.947Z,956.62
2022-11-15T04:49:59.908Z,956.70
2022-11-15T04:50:59.889Z,956.68
2022-11-15T04:51:59.875Z,956.68
2022-11-15T04:52:59.868Z,956.65
2022-11-15T04:53:59.861Z,956.65
2022-11-15T04:55:05.063Z,956.66
2022-11-15T04:55:59.831Z,956.63
2022-11-15T04:56:59.827Z,956.63
2022-11-15T04:57:59.821Z,956.59
2022-11-15T04:58:59.801Z,956.60
2022-11-15T04:59:59.909Z,956.60
2022-11-15T05:00:59.859Z,956.54
2022-11-15T05:01:59.789Z,956.57
2022-11-15T05:03:02.761Z,956.57
2022-11-15T05:03:59.769Z,956.55
2022-11-15T05:04:59.743Z,956.54
2022-11-15T05:05:59.746Z,956.54
2022-11-15T05:06:59.775Z,956.50
2022-11-15T05:07:59.706Z,956.57
2022-11-15T05:08:59.707Z,956.52
2022-11-15T05:09:59.681Z,956.50
2022-11-15T05:10:59.702Z,956.45
2022-11-15T05:11:59.731Z,956.45
2022-11-15T05:12:59.670Z,956.42
2022-11-15T05:13:59.641Z,956.47
2022-11-15T05:14:59.753Z,956.46
2022-11-15T05:15:59.629Z,956.47
2022-11-15T05:16:59.691Z,956.43
2022-11-15T05:18:02.601Z,956.41
2022-11-15T05:18:59.600Z,956.45
2022-11-15T05:19:59.598Z,956.40
2022-11-15T05:20:59.563Z,956.39
2022-11-15T05:21:59.570Z,956.35
2022-11-15T05:22:59.569Z,956.35
2022-11-15T05:23:59.543Z,956.37
2022-11-15T05:24:59.531Z,956.26
2022-11-15T05:25:59.532Z,956.28
2022-11-15T05:26:59.532Z,956.34
2022-11-15T05:27:59.622Z,956.30
2022-11-15T05:28:59.494Z,956.33
2022-11-15T05:29:59.486Z,956.27
2022-11-15T05:30:59.472Z,956.28
2022-11-15T05:31:59.464Z,956.29
2022-11-15T05:33:02.474Z,956.27
2022-11-15T05:33:59.479Z,956.27
2022-11-15T05:34:59.435Z,956.25
2022-11-15T05:35:59.416Z,956.26
2022-11-15T05:36:59.450Z,956.22
2022-11-15T05:37:59.421Z,956.23
2022-11-15T05:38:59.446Z,956.20
2022-11-15T05:39:59.396Z,956.22
2022-11-15T05:40:59.373Z,956.22
2022-11-15T05:41:59.359Z,956.17
2022-11-15T05:42:59.346Z,956.19
2022-11-15T05:43:59.342Z,956.16
2022-11-15T05:44:59.385Z,956.17
2022-11-15T05:45:59.317Z,956.14
2022-11-15T05:46:59.327Z,956.14
2022-11-15T05:48:02.347Z,956.16
2022-11-15T05:48:59.345Z,956.16
2022-11-15T05:49:59.553Z,956.18
2022-11-15T05:50:59.387Z,956.15
2022-11-15T05:51:59.309Z,956.12
2022-11-15T05:53:04.692Z,956.11
2022-11-15T05:53:59.200Z,956.14
2022-11-15T05:54:59.228Z,956.14
2022-11-15T05:55:59.238Z,956.10
2022-11-15T05:56:59.208Z,956.06
2022-11-15T05:57:59.194Z,956.08
2022-11-15T05:58:59.896Z,956.09
2022-11-15T05:59:59.158Z,956.11
2022-11-15T06:00:59.193Z,956.08
2022-11-15T06:01:59.218Z,956.12
2022-11-15T06:03:02.097Z,956.08
2022-11-15T06:03:59.087Z,956.09
2022-11-15T06:04:59.087Z,956.08
2022-11-15T06:05:59.069Z,956.11
2022-11-15T06:06:59.215Z,956.10
2022-11-15T06:07:59.050Z,956.10
2022-11-15T06:08:59.032Z,956.11
2022-11-15T06:09:59.042Z,956.13
2022-11-15T06:10:59.014Z,956.13
2022-11-15T06:11:59.014Z,956.16
2022-11-15T06:12:59.185Z,956.17
2022-11-15T06:13:58.984Z,956.14
2022-11-15T06:14:58.969Z,956.18
2022-11-15T06:15:58.947Z,956.12
2022-11-15T06:16:58.954Z,956.15
2022-11-15T06:18:02.967Z,956.12
2022-11-15T06:18:58.944Z,956.15
2022-11-15T06:19:58.939Z,956.10
2022-11-15T06:20:58.921Z,956.12
2022-11-15T06:21:58.902Z,956.08
2022-11-15T06:22:58.900Z,956.11
2022-11-15T06:23:59.152Z,956.11
2022-11-15T06:25:04.076Z,956.06
2022-11-15T06:25:58.863Z,956.07
2022-11-15T06:26:58.854Z,956.08
2022-11-15T06:27:58.832Z,956.06
2022-11-15T06:28:58.847Z,956.05
2022-11-15T06:29:58.898Z,956.05
2022-11-15T06:30:58.816Z,956.09
2022-11-15T06:31:58.810Z,956.02
2022-11-15T06:33:01.805Z,955.99
2022-11-15T06:33:58.805Z,956.05
2022-11-15T06:34:59.755Z,956.04
2022-11-15T06:35:58.783Z,956.01
2022-11-15T06:36:58.756Z,956.04
2022-11-15T06:37:58.755Z,956.04
2022-11-15T06:38:59.676Z,956.05
2022-11-15T06:39:58.745Z,956.04
2022-11-15T06:40:58.723Z,956.02
2022-11-15T06:41:58.899Z,956.04
2022-11-15T06:42:58.728Z,956.03
2022-11-15T06:43:58.713Z,956.03
2022-11-15T06:44:58.750Z,956.03
2022-11-15T06:45:58.682Z,956.02
2022-11-15T06:46:58.656Z,956.06
2022-11-15T06:48:01.739Z,956.06
2022-11-15T06:48:58.658Z,956.03
2022-11-15T06:49:59.855Z,956.09
2022-11-15T06:50:58.625Z,956.08
2022-11-15T06:51:58.609Z,956.06
2022-11-15T06:52:58.590Z,956.06
2022-11-15T06:53:58.581Z,956.05
2022-11-15T06:54:58.566Z,956.04
2022-11-15T06:55:58.565Z,956.06
2022-11-15T06:56:58.568Z,956.03
2022-11-15T06:57:58.539Z,956.03
2022-11-15T06:58:58.543Z,956.01
2022-11-15T06:59:58.530Z,956.08
2022-11-15T07:00:58.564Z,956.02
2022-11-15T07:01:58.520Z,956.01
2022-11-15T07:03:01.520Z,956.05
2022-11-15T07:03:58.514Z,955.99
2022-11-15T07:04:58.459Z,956.04
2022-11-15T07:06:02.796Z,956.00
2022-11-15T07:06:58.506Z,956.04
2022-11-15T07:07:58.477Z,956.01
2022-11-15T07:08:58.439Z,956.00
2022-11-15T07:09:58.424Z,955.98
2022-11-15T07:10:58.416Z,955.98
2022-11-15T07:12:01.040Z,955.97
2022-11-15T07:12:58.419Z,955.95
2022-11-15T07:13:58.412Z,956.04
2022-11-15T07:14:58.365Z,956.05
2022-11-15T07:15:58.354Z,956.06
2022-11-15T07:16:58.339Z,956.04
2022-11-15T07:18:01.345Z,956.06
2022-11-15T07:18:58.392Z,956.08
2022-11-15T07:19:58.315Z,956.01
2022-11-15T07:20:58.312Z,955.97
2022-11-15T07:21:58.312Z,955.98
2022-11-15T07:22:58.294Z,955.97
2022-11-15T07:23:58.285Z,955.96
2022-11-15T07:24:58.263Z,955.95
2022-11-15T07:25:58.262Z,955.98
2022-11-15T07:26:58.252Z,956.00
2022-11-15T07:27:58.247Z,956.02
2022-11-15T07:28:58.233Z,956.03
2022-11-15T07:29:58.454Z,956.03
2022-11-15T07:30:58.208Z,956.03
2022-11-15T07:31:58.215Z,956.07
2022-11-15T07:33:01.248Z,956.07
2022-11-15T07:33:58.195Z,956.06
2022-11-15T07:34:58.170Z,956.03
2022-11-15T07:35:58.147Z,956.02
2022-11-15T07:36:58.180Z,956.05
2022-11-15T07:37:58.136Z,956.06
2022-11-15T07:38:58.125Z,956.04
2022-11-15T07:39:58.115Z,956.04
2022-11-15T07:40:58.127Z,956.03
2022-11-15T07:41:58.146Z,956.03
2022-11-15T07:42:58.089Z,956.03
2022-11-15T07:43:58.067Z,955.99
2022-11-15T07:44:58.066Z,955.99
2022-11-15T07:45:59.506Z,956.00
2022-11-15T07:46:58.216Z,956.03
2022-11-15T07:48:01.037Z,956.05
2022-11-15T07:48:58.044Z,956.07
2022-11-15T07:49:58.059Z,956.02
2022-11-15T07:50:58.029Z,956.02
2022-11-15T07:51:57.997Z,956.04
2022-11-15T07:52:58.011Z,956.04
2022-11-15T07:53:57.965Z,956.01
2022-11-15T07:54:57.970Z,956.03
2022-11-15T07:55:57.969Z,956.03
2022-11-15T07:57:01.214Z,956.03
2022-11-15T07:57:57.967Z,956.04
2022-11-15T07:58:57.928Z,956.02
2022-11-15T07:59:57.925Z,956.07
2022-11-15T08:00:58.105Z,956.07
2022-11-15T08:01:58.056Z,956.04
2022-11-15T08:03:00.904Z,956.03
2022-11-15T08:03:57.919Z,956.00
2022-11-15T08:04:57.871Z,955.95
2022-11-15T08:05:57.855Z,955.95
2022-11-15T08:06:57.898Z,955.98
2022-11-15T08:07:57.871Z,956.01
2022-11-15T08:08:58.014Z,956.01
2022-11-15T08:09:57.829Z,956.03
2022-11-15T08:10:57.816Z,956.04
2022-11-15T08:11:57.799Z,956.03
2022-11-15T08:12:57.870Z,955.97
2022-11-15T08:13:57.840Z,955.94
2022-11-15T08:14:57.800Z,955.90
2022-11-15T08:15:57.995Z,955.85
2022-11-15T08:16:57.773Z,955.82
2022-11-15T08:18:00.722Z,955.83
2022-11-15T08:18:57.803Z,955.83
2022-11-15T08:19:57.792Z,955.77
2022-11-15T08:20:57.715Z,955.73
2022-11-15T08:21:57.730Z,955.72
2022-11-15T08:22:57.756Z,955.68
2022-11-15T08:23:57.783Z,955.68
2022-11-15T08:24:57.669Z,955.71
2022-11-15T08:25:57.677Z,955.67
2022-11-15T08:26:57.697Z,955.68
2022-11-15T08:27:57.623Z,955.64
2022-11-15T08:28:57.660Z,955.67
2022-11-15T08:29:59.593Z,955.65
2022-11-15T08:30:57.845Z,955.58
2022-11-15T08:31:57.582Z,955.65
2022-11-15T08:33:00.575Z,955.60
2022-11-15T08:33:57.574Z,955.62
2022-11-15T08:34:57.557Z,955.65
2022-11-15T08:35:57.546Z,955.67
2022-11-15T08:36:57.542Z,955.64
2022-11-15T08:37:57.535Z,955.66
2022-11-15T08:38:57.507Z,955.66
2022-11-15T08:39:57.496Z,955.63
2022-11-15T08:40:57.490Z,955.63
2022-11-15T08:41:57.517Z,955.67
2022-11-15T08:42:57.476Z,955.66
2022-11-15T08:43:57.458Z,955.65
2022-11-15T08:44:57.449Z,955.65
2022-11-15T08:45:57.437Z,955.62
2022-11-15T08:46:57.426Z,955.69
2022-11-15T08:48:00.429Z,955.66
2022-11-15T08:48:57.429Z,955.64
2022-11-15T08:49:57.455Z,955.65
2022-11-15T08:50:57.480Z,955.60
2022-11-15T08:51:57.388Z,955.58
2022-11-15T08:52:57.371Z,955.63
2022-11-15T08:53:57.355Z,955.60
2022-11-15T08:54:57.358Z,955.66
2022-11-15T08:55:57.347Z,955.66
2022-11-15T08:56:57.352Z,955.63
2022-11-15T08:57:57.441Z,955.68
2022-11-15T08:58:57.310Z,955.67
2022-11-15T08:59:57.296Z,955.59
2022-11-15T09:00:57.298Z,955.64
2022-11-15T09:03:00.269Z,955.64
2022-11-15T09:03:57.270Z,955.62
2022-11-15T09:05:57.240Z,955.60
2022-11-15T09:06:57.274Z,955.60
2022-11-15T09:07:57.220Z,955.65
2022-11-15T09:08:58.395Z,955.63
2022-11-15T09:09:57.212Z,955.68
2022-11-15T09:10:57.204Z,955.69
2022-11-15T09:12:01.309Z,955.69
2022-11-15T09:12:57.164Z,955.70
2022-11-15T09:13:57.160Z,955.69
2022-11-15T09:14:57.142Z,955.72
2022-11-15T09:15:57.137Z,955.71
2022-11-15T09:16:57.122Z,955.71
2022-11-15T09:18:00.125Z,955.71
2022-11-15T09:18:57.117Z,955.72
2022-11-15T09:19:57.092Z,955.73
2022-11-15T09:20:57.105Z,955.75
2022-11-15T09:21:57.077Z,955.76
2022-11-15T09:22:57.168Z,955.76
2022-11-15T09:23:57.055Z,955.74
2022-11-15T09:24:57.049Z,955.80
2022-11-15T09:25:57.035Z,955.72
2022-11-15T09:26:57.026Z,955.75
2022-11-15T09:27:57.014Z,955.72
2022-11-15T09:28:57.007Z,955.75
2022-11-15T09:29:57.007Z,955.76
2022-11-15T09:30:56.985Z,955.78
2022-11-15T09:31:57.092Z,955.82
2022-11-15T09:32:59.968Z,955.85
2022-11-15T09:33:56.977Z,955.84
2022-11-15T09:34:56.957Z,955.88
2022-11-15T09:35:56.938Z,955.86
2022-11-15T09:36:56.931Z,955.88
2022-11-15T09:37:56.916Z,955.83
2022-11-15T09:38:56.908Z,955.84
2022-11-15T09:39:56.890Z,955.83
2022-11-15T09:40:56.879Z,955.79
2022-11-15T09:41:56.875Z,955.78
2022-11-15T09:42:56.900Z,955.80
2022-11-15T09:43:56.871Z,955.75
2022-11-15T09:44:56.848Z,955.78
2022-11-15T09:45:56.822Z,955.77
2022-11-15T09:46:56.825Z,955.73
2022-11-15T09:47:59.840Z,955.72
2022-11-15T09:48:56.820Z,955.73
2022-11-15T09:49:58.098Z,955.76
2022-11-15T09:50:56.781Z,955.73
2022-11-15T09:51:56.771Z,955.71
2022-11-15T09:52:56.765Z,955.72
2022-11-15T09:54:37.410Z,955.68
2022-11-15T09:54:57.741Z,955.72
2022-11-15T09:55:56.781Z,955.73
2022-11-15T09:56:56.718Z,955.71
2022-11-15T09:57:56.703Z,955.69
2022-11-15T09:58:56.711Z,955.70
2022-11-15T09:59:56.690Z,955.70
2022-11-15T10:00:57.748Z,955.68
2022-11-15T10:01:56.665Z,955.68
2022-11-15T10:02:59.652Z,955.71
2022-11-15T10:03:56.670Z,955.73
2022-11-15T10:04:56.631Z,955.68
2022-11-15T10:05:56.632Z,955.70
2022-11-15T10:06:56.668Z,955.65
2022-11-15T10:07:56.602Z,955.68
2022-11-15T10:08:56.593Z,955.62
2022-11-15T10:09:56.596Z,955.60
2022-11-15T10:11:15.764Z,955.59
2022-11-15T10:11:57.573Z,955.60
2022-11-15T10:12:56.615Z,955.58
2022-11-15T10:13:56.545Z,955.59
2022-11-15T10:14:56.538Z,955.57
2022-11-15T10:15:56.525Z,955.55
2022-11-15T10:16:56.596Z,955.52
2022-11-15T10:17:59.529Z,955.48
2022-11-15T10:18:56.506Z,955.44
2022-11-15T10:19:58.533Z,955.50
2022-11-15T10:20:56.465Z,955.46
2022-11-15T10:21:57.435Z,955.46
2022-11-15T10:22:56.449Z,955.42
2022-11-15T10:23:56.445Z,955.43
2022-11-15T10:24:56.429Z,955.45
2022-11-15T10:26:56.415Z,955.41
2022-11-15T10:27:56.401Z,955.42
2022-11-15T10:28:56.389Z,955.38
2022-11-15T10:29:56.379Z,955.36
2022-11-15T10:30:56.407Z,955.32
2022-11-15T10:31:56.363Z,955.30
2022-11-15T10:32:59.339Z,955.25
2022-11-15T10:33:56.369Z,955.24
2022-11-15T10:34:56.330Z,955.26
2022-11-15T10:36:56.317Z,955.28
2022-11-15T10:37:56.297Z,955.32
2022-11-15T10:38:56.289Z,955.26
2022-11-15T10:39:56.271Z,955.25
2022-11-15T10:40:56.261Z,955.23
2022-11-15T10:41:56.260Z,955.25
2022-11-15T10:42:56.260Z,955.21
2022-11-15T10:43:56.243Z,955.24
2022-11-15T10:44:56.220Z,955.24
2022-11-15T10:45:56.217Z,955.27
2022-11-15T10:46:57.223Z,955.28
2022-11-15T10:47:59.185Z,955.32
2022-11-15T10:48:56.205Z,955.31
2022-11-15T10:49:56.176Z,955.28
2022-11-15T10:50:56.163Z,955.29
2022-11-15T10:51:56.193Z,955.33
2022-11-15T10:52:56.143Z,955.31
2022-11-15T10:53:56.133Z,955.32
2022-11-15T10:54:56.123Z,955.38
2022-11-15T10:55:56.118Z,955.34
2022-11-15T10:56:56.097Z,955.33
2022-11-15T10:57:56.104Z,955.32
2022-11-15T10:58:57.026Z,955.26
2022-11-15T10:59:56.104Z,955.25
2022-11-15T11:00:56.117Z,955.27
2022-11-15T11:01:56.061Z,955.26
2022-11-15T11:02:59.064Z,955.18
2022-11-15T11:03:56.999Z,955.20
2022-11-15T11:04:56.028Z,955.28
2022-11-15T11:05:56.017Z,955.18
2022-11-15T11:06:56.063Z,955.17
2022-11-15T11:07:56.288Z,955.12
2022-11-15T11:08:56.003Z,955.13
2022-11-15T11:09:55.968Z,955.12
2022-11-15T11:11:01.568Z,955.17
2022-11-15T11:11:55.952Z,955.08
2022-11-15T11:12:55.943Z,955.08
2022-11-15T11:13:55.936Z,955.04
2022-11-15T11:14:55.912Z,955.04
2022-11-15T11:15:55.916Z,955.01
2022-11-15T11:16:55.892Z,955.01
2022-11-15T11:17:58.881Z,954.99
2022-11-15T11:18:55.891Z,955.02
2022-11-15T11:19:55.868Z,954.99
2022-11-15T11:20:55.852Z,955.04
2022-11-15T11:21:55.960Z,955.03
2022-11-15T11:22:55.877Z,954.99
2022-11-15T11:23:55.822Z,954.95
2022-11-15T11:24:55.815Z,954.97
2022-11-15T11:25:55.803Z,954.95
2022-11-15T11:26:57.188Z,954.91
2022-11-15T11:27:55.822Z,954.91
2022-11-15T11:28:55.773Z,954.85
2022-11-15T11:29:55.764Z,954.84
2022-11-15T11:30:55.756Z,954.81
2022-11-15T11:31:55.734Z,954.75
2022-11-15T11:32:58.748Z,954.69
2022-11-15T11:33:55.741Z,954.65
2022-11-15T11:34:55.710Z,954.61
2022-11-15T11:35:55.692Z,954.57
2022-11-15T11:36:55.694Z,954.60
2022-11-15T11:37:55.666Z,954.63
2022-11-15T11:38:56.183Z,954.59
2022-11-15T11:39:55.655Z,954.55
2022-11-15T11:40:55.643Z,954.54
2022-11-15T11:41:55.630Z,954.51
2022-11-15T11:42:55.621Z,954.46
2022-11-15T11:43:55.625Z,954.44
2022-11-15T11:44:55.596Z,954.43
2022-11-15T11:45:55.586Z,954.41
2022-11-15T11:46:55.588Z,954.41
2022-11-15T11:47:58.569Z,954.38
2022-11-15T11:48:55.567Z,954.38
2022-11-15T11:49:55.550Z,954.35
2022-11-15T11:50:55.540Z,954.31
2022-11-15T11:51:55.641Z,954.29
2022-11-15T11:52:58.389Z,954.26
2022-11-15T11:53:55.508Z,954.23
2022-11-15T11:54:55.511Z,954.16
2022-11-15T11:55:55.478Z,954.12
2022-11-15T11:56:55.473Z,954.10
2022-11-15T11:57:55.460Z,954.11
2022-11-15T11:58:55.441Z,954.11
2022-11-15T11:59:55.463Z,954.08
2022-11-15T12:00:55.431Z,954.04
2022-11-15T12:01:55.553Z,954.03
2022-11-15T12:02:58.508Z,954.02
2022-11-15T12:03:55.416Z,954.03
2022-11-15T12:04:55.381Z,954.03
2022-11-15T12:05:55.376Z,953.98
2022-11-15T12:06:55.380Z,954.01
2022-11-15T12:07:55.353Z,953.95
2022-11-15T12:08:55.344Z,954.02
2022-11-15T12:09:55.347Z,954.00
2022-11-15T12:10:55.332Z,953.99
2022-11-15T12:11:55.313Z,953.95
2022-11-15T12:12:55.299Z,953.97
2022-11-15T12:13:55.334Z,953.94
2022-11-15T12:14:55.283Z,953.92
2022-11-15T12:15:55.278Z,953.90
2022-11-15T12:16:55.275Z,953.93
2022-11-15T12:17:58.316Z,953.86
2022-11-15T12:18:55.264Z,953.81
2022-11-15T12:19:55.235Z,953.79
2022-11-15T12:20:55.214Z,953.75
2022-11-15T12:21:55.202Z,953.76
2022-11-15T12:22:55.194Z,953.77
2022-11-15T12:23:55.193Z,953.76
2022-11-15T12:24:55.295Z,953.70
2022-11-15T12:25:55.176Z,953.67
2022-11-15T12:26:55.177Z,953.62
2022-11-15T12:27:55.138Z,953.60
2022-11-15T12:29:06.896Z,953.59
2022-11-15T12:29:55.128Z,953.65
2022-11-15T12:30:55.119Z,953.69
2022-11-15T12:31:55.106Z,953.69